Time;durP1;ratioP1;P1;durP2;ratioP2;P2;SDS_P1;SDS_P2;PMS_P1;PMS_P2;Temp;Humidity;BMP_temperature;BMP_pressure;BME280_temperature;BME280_humidity;BME280_pressure;Samples;Min_cycle;Max_cycle;Signal;HPM_P1;HPM_P2
2022/05/14 00:01:07;;;;;;;7.10;3.88;;;;;;;19.07;42.14;93796.50;4997755;28;20491;-75
2022/05/14 00:03:38;;;;;;;4.50;4.10;;;;;;;19.11;42.41;93799.28;4992931;28;20529;-75
2022/05/14 00:06:06;;;;;;;6.13;4.57;;;;;;;19.11;42.24;93799.28;4995467;28;20034;-75
2022/05/14 00:08:32;;;;;;;5.88;3.90;;;;;;;18.95;42.36;93775.19;4993341;28;20026;-74
2022/05/14 00:13:43;;;;;;;4.95;4.00;;;;;;;19.10;42.17;93787.72;4978292;28;20033;-75
2022/05/14 00:16:10;;;;;;;7.68;4.68;;;;;;;19.02;42.08;93791.44;4974877;28;20069;-75
2022/05/14 00:18:36;;;;;;;6.78;4.15;;;;;;;18.98;42.25;93787.16;4977547;28;20061;-74
2022/05/14 00:21:01;;;;;;;4.18;3.78;;;;;;;19.02;42.25;93788.00;4973559;28;20035;-74
2022/05/14 00:23:27;;;;;;;7.18;3.58;;;;;;;18.98;41.85;93782.53;4999894;28;20777;-75
2022/05/14 00:25:53;;;;;;;5.47;4.30;;;;;;;18.96;41.96;93790.22;4995515;28;20117;-74
2022/05/14 00:28:19;;;;;;;4.22;3.80;;;;;;;18.86;42.12;93791.66;4992299;28;20034;-75
2022/05/14 00:30:45;;;;;;;4.50;3.45;;;;;;;18.82;42.31;93785.41;4996467;28;20322;-75
2022/05/14 00:33:11;;;;;;;4.35;3.95;;;;;;;18.75;42.46;93779.94;4986323;28;20676;-75
2022/05/14 00:35:37;;;;;;;6.68;4.15;;;;;;;18.74;42.78;93773.00;4988791;28;20524;-75
2022/05/14 00:38:03;;;;;;;7.93;4.47;;;;;;;18.74;42.86;93783.00;4994165;28;20095;-74
2022/05/14 00:40:32;;;;;;;5.15;4.05;;;;;;;18.70;42.94;93777.56;4996150;28;20642;-75
2022/05/14 00:42:59;;;;;;;5.00;4.32;;;;;;;18.58;42.68;93758.91;4986778;28;20507;-75
2022/05/14 00:45:25;;;;;;;7.60;3.85;;;;;;;18.70;42.92;93782.97;4974788;28;20499;-74
2022/05/14 00:47:54;;;;;;;5.40;3.90;;;;;;;18.69;42.92;93781.38;4980456;28;20146;-74
2022/05/14 00:50:39;;;;;;;5.53;3.85;;;;;;;18.55;42.91;93765.03;4973803;28;20060;-74
2022/05/14 00:53:12;;;;;;;4.72;3.67;;;;;;;18.47;43.73;93779.53;4980178;28;20043;-74
2022/05/14 00:55:40;;;;;;;4.90;3.88;;;;;;;18.35;43.22;93769.75;4976101;28;20043;-73
2022/05/14 00:58:07;;;;;;;4.68;3.80;;;;;;;18.41;43.35;93771.00;4976203;28;20043;-75
2022/05/14 01:00:33;;;;;;;6.45;4.13;;;;;;;18.42;43.60;93774.47;4972476;28;20034;-74
2022/05/14 01:02:58;;;;;;;6.68;4.55;;;;;;;18.41;43.46;93775.59;4976998;28;20967;-75
2022/05/14 01:05:24;;;;;;;5.78;4.57;;;;;;;18.40;43.39;93777.50;4978236;28;20022;-74
2022/05/14 01:07:53;;;;;;;8.50;4.40;;;;;;;18.15;43.64;93752.13;4972129;28;20061;-75
2022/05/14 01:10:22;;;;;;;5.65;4.47;;;;;;;18.20;43.73;93761.81;4980193;28;20592;-74
2022/05/14 01:13:01;;;;;;;5.45;4.68;;;;;;;18.28;44.00;93787.72;4977649;28;20038;-75
2022/05/14 01:15:40;;;;;;;6.38;5.07;;;;;;;18.26;43.79;93789.97;4978778;28;20042;-75
2022/05/14 01:18:05;;;;;;;7.13;4.57;;;;;;;18.17;44.10;93784.84;4978988;28;20081;-74
2022/05/14 01:20:35;;;;;;;6.82;4.95;;;;;;;18.13;43.93;93781.34;4976244;28;20449;-74
2022/05/14 01:23:25;;;;;;;5.28;4.57;;;;;;;18.07;44.19;93776.63;4977398;28;20046;-74
2022/05/14 01:26:29;;;;;;;7.10;4.78;;;;;;;18.05;44.02;93774.28;4970697;28;20034;-74
2022/05/14 01:29:04;;;;;;;6.63;5.43;;;;;;;17.99;44.25;93770.34;4972284;28;20946;-74
2022/05/14 01:31:30;;;;;;;5.53;4.55;;;;;;;17.87;44.16;93749.75;4970122;28;20046;-74
2022/05/14 01:34:00;;;;;;;7.55;4.60;;;;;;;17.97;44.40;93768.00;4972002;28;20511;-75
2022/05/14 01:36:25;;;;;;;5.38;4.60;;;;;;;17.99;44.44;93767.66;4965708;28;20042;-75
2022/05/14 01:38:51;;;;;;;5.05;4.47;;;;;;;17.85;44.83;93749.31;4973031;28;20112;-75
2022/05/14 01:41:17;;;;;;;6.10;4.53;;;;;;;17.81;44.81;93745.81;4974573;28;20073;-73
2022/05/14 01:43:42;;;;;;;5.03;4.22;;;;;;;17.82;44.69;93766.19;4971700;28;20126;-74
2022/05/14 01:46:09;;;;;;;5.15;4.38;;;;;;;17.78;45.08;93761.91;4975783;28;20042;-74
2022/05/14 01:48:34;;;;;;;4.93;4.47;;;;;;;17.67;44.96;93731.34;4974124;28;20046;-75
2022/05/14 01:51:00;;;;;;;4.97;3.85;;;;;;;17.56;44.93;93731.16;4971367;28;20702;-74
2022/05/14 01:53:25;;;;;;;5.85;4.15;;;;;;;17.71;45.40;93748.31;4966503;28;20042;-75
2022/05/14 01:55:51;;;;;;;6.45;4.47;;;;;;;17.67;45.26;93758.25;4972488;28;20046;-74
2022/05/14 02:01:01;;;;;;;9.17;5.47;;;;;;;17.49;45.38;93744.50;4974161;28;20089;-74
2022/05/14 02:03:26;;;;;;;6.20;4.70;;;;;;;17.55;45.33;93757.28;4965029;28;20050;-75
2022/05/14 02:05:52;;;;;;;6.90;5.05;;;;;;;17.56;45.58;93758.06;4967687;28;20045;-74
2022/05/14 02:08:18;;;;;;;6.28;4.63;;;;;;;17.55;45.55;93753.84;4973210;28;20108;-74
2022/05/14 02:10:43;;;;;;;5.50;4.63;;;;;;;17.48;45.74;93751.00;4970435;28;20435;-74
2022/05/14 02:13:10;;;;;;;4.60;4.18;;;;;;;17.51;45.60;93755.66;4973439;28;20518;-74
2022/05/14 02:15:37;;;;;;;5.22;4.45;;;;;;;17.42;45.78;93752.44;4971701;28;20049;-72
2022/05/14 02:18:02;;;;;;;5.72;4.35;;;;;;;17.26;45.62;93727.59;4970707;28;20030;-74
2022/05/14 02:20:28;;;;;;;7.53;4.60;;;;;;;17.38;45.53;93741.63;4973566;28;20034;-75
2022/05/14 02:22:53;;;;;;;7.28;4.30;;;;;;;17.42;45.83;93753.22;4968959;28;20034;-75
2022/05/14 02:25:19;;;;;;;6.53;4.90;;;;;;;17.44;45.70;93750.19;4969943;28;20081;-74
2022/05/14 02:27:45;;;;;;;5.10;4.60;;;;;;;17.49;45.67;93757.94;4967789;28;20034;-75
2022/05/14 02:30:11;;;;;;;4.78;4.13;;;;;;;17.46;45.81;93758.66;4972130;28;20046;-74
2022/05/14 02:32:38;;;;;;;4.65;4.25;;;;;;;17.45;45.91;93747.09;4968618;28;20034;-74
2022/05/14 02:35:05;;;;;;;4.88;4.38;;;;;;;17.43;46.05;93748.63;4972984;28;20027;-74
2022/05/14 02:37:30;;;;;;;5.65;4.35;;;;;;;17.36;46.20;93745.78;4970580;28;20244;-75
2022/05/14 02:39:56;;;;;;;5.32;4.57;;;;;;;17.24;46.16;93737.91;4970029;28;20060;-75
2022/05/14 02:42:21;;;;;;;7.97;4.82;;;;;;;17.27;46.24;93739.88;4968658;28;20360;-74
2022/05/14 02:44:47;;;;;;;4.93;4.03;;;;;;;17.26;46.37;93749.09;4968623;28;20137;-74
2022/05/14 02:47:12;;;;;;;7.68;4.63;;;;;;;17.12;46.45;93723.47;4970479;28;20038;-75
2022/05/14 02:49:38;;;;;;;5.03;4.32;;;;;;;17.17;46.69;93738.53;4973190;28;20504;-74
2022/05/14 02:52:05;;;;;;;5.82;4.15;;;;;;;17.29;46.35;93753.75;4965350;28;20529;-74
2022/05/14 02:54:30;;;;;;;5.18;4.60;;;;;;;17.24;46.60;93757.50;4972124;28;20070;-75
2022/05/14 02:56:56;;;;;;;6.72;4.93;;;;;;;17.21;46.57;93757.44;4971635;28;20156;-74
2022/05/14 02:59:21;;;;;;;8.25;5.22;;;;;;;17.27;46.67;93756.78;4970956;28;20494;-74
2022/05/14 03:01:48;;;;;;;6.25;4.22;;;;;;;17.14;46.80;93748.09;4968846;28;20169;-74
2022/05/14 03:04:16;;;;;;;5.85;4.35;;;;;;;17.10;46.58;93733.03;4971595;28;20430;-74
2022/05/14 03:06:41;;;;;;;5.15;4.57;;;;;;;17.20;46.93;93758.56;4971443;28;20573;-73
2022/05/14 03:09:06;;;;;;;7.47;4.97;;;;;;;17.07;47.01;93747.94;4973983;28;20081;-75
2022/05/14 03:11:32;;;;;;;7.03;4.78;;;;;;;17.10;46.85;93762.56;4975741;28;20421;-74
2022/05/14 03:13:57;;;;;;;4.60;4.20;;;;;;;16.98;46.94;93747.38;4970913;28;20070;-72
2022/05/14 03:16:23;;;;;;;5.25;4.57;;;;;;;16.98;47.07;93747.38;4974141;28;20122;-75
2022/05/14 03:18:48;;;;;;;9.27;4.72;;;;;;;17.07;47.11;93758.69;4976481;28;20116;-74
2022/05/14 03:21:14;;;;;;;4.97;4.25;;;;;;;17.12;47.21;93760.28;4971311;28;20042;-74
2022/05/14 03:23:39;;;;;;;6.38;4.97;;;;;;;17.05;47.11;93762.84;4976364;28;20121;-74
2022/05/14 03:26:05;;;;;;;9.00;5.35;;;;;;;16.87;47.33;93742.91;4972753;28;20549;-74
2022/05/14 03:28:30;;;;;;;5.38;4.72;;;;;;;17.02;47.20;93769.69;4974236;28;20081;-74
2022/05/14 03:30:57;;;;;;;6.18;4.43;;;;;;;16.91;47.72;93760.69;4973390;28;20061;-75
2022/05/14 03:33:22;;;;;;;5.18;4.65;;;;;;;17.02;47.46;93777.75;4972547;28;20275;-74
2022/05/14 03:35:48;;;;;;;6.18;4.53;;;;;;;16.97;47.21;93753.88;4975077;28;20538;-74
2022/05/14 03:38:13;;;;;;;5.78;4.85;;;;;;;17.01;47.36;93770.81;4993350;28;20041;-74
2022/05/14 03:40:38;;;;;;;5.90;5.13;;;;;;;16.90;47.39;93745.69;4995574;28;20108;-75
2022/05/14 03:43:04;;;;;;;7.38;4.57;;;;;;;16.98;47.57;93760.81;4993065;28;20092;-74
2022/05/14 03:45:30;;;;;;;7.00;5.43;;;;;;;17.03;47.58;93768.56;4994405;28;20046;-75
2022/05/14 03:47:55;;;;;;;7.13;5.70;;;;;;;16.91;47.46;93752.63;5000852;28;20088;-74
2022/05/14 03:50:20;;;;;;;6.40;4.63;;;;;;;17.11;47.81;93778.31;4993274;28;20581;-74
2022/05/14 03:52:47;;;;;;;7.00;4.78;;;;;;;17.10;47.88;93779.47;4994564;28;20049;-75
2022/05/14 03:55:12;;;;;;;5.65;4.78;;;;;;;17.04;47.96;93767.47;4993601;28;20067;-74
2022/05/14 03:57:38;;;;;;;5.45;4.95;;;;;;;17.16;47.96;93786.13;4998206;28;20052;-73
2022/05/14 04:00:07;;;;;;;10.15;5.50;;;;;;;17.11;48.21;93778.31;4995941;28;20398;-75
2022/05/14 04:02:34;;;;;;;7.75;5.00;;;;;;;17.18;48.29;93786.56;4995397;28;20308;-74
2022/05/14 04:04:59;;;;;;;6.30;5.18;;;;;;;17.24;48.40;93778.22;4996089;28;20046;-73
2022/05/14 04:07:25;;;;;;;8.43;5.82;;;;;;;17.20;48.74;93778.16;4994497;28;20052;-72
2022/05/14 04:09:51;;;;;;;6.63;5.68;;;;;;;17.29;48.56;93783.31;4991857;28;20038;-74
2022/05/14 04:12:17;;;;;;;9.93;6.85;;;;;;;17.17;48.44;93760.03;4992215;28;20598;-75
2022/05/14 04:14:43;;;;;;;7.28;5.90;;;;;;;16.96;48.75;93725.47;4996000;28;20032;-74
2022/05/14 04:17:08;;;;;;;5.75;5.20;;;;;;;17.34;48.61;93783.78;4997020;28;20402;-74
2022/05/14 04:19:34;;;;;;;8.27;5.75;;;;;;;17.41;48.58;93781.22;4990208;28;20422;-75
2022/05/14 04:21:59;;;;;;;9.07;6.78;;;;;;;17.43;48.52;93780.88;4996921;28;20042;-74
2022/05/14 04:24:24;;;;;;;14.18;9.40;;;;;;;17.41;48.18;93783.13;4995735;28;20379;-74
2022/05/14 04:26:50;;;;;;;14.13;9.35;;;;;;;17.44;48.06;93783.22;4993839;28;20030;-74
2022/05/14 04:29:15;;;;;;;11.52;8.20;;;;;;;17.67;47.65;93807.44;4990354;28;20088;-74
2022/05/14 04:31:41;;;;;;;9.45;7.15;;;;;;;17.56;47.32;93801.06;4997346;28;20045;-74
2022/05/14 04:34:06;;;;;;;11.68;8.05;;;;;;;17.21;48.12;93821.94;4994475;28;20045;-74
2022/05/14 04:36:32;;;;;;;12.57;8.23;;;;;;;16.43;49.82;93812.94;4996251;28;20041;-74
2022/05/14 04:38:57;;;;;;;8.35;7.30;;;;;;;16.38;50.99;93813.22;4992471;28;20368;-73
2022/05/14 04:41:25;;;;;;;9.65;7.55;;;;;;;16.55;50.74;93828.19;4977260;28;20027;-75
2022/05/14 04:43:51;;;;;;;11.95;8.13;;;;;;;16.15;51.86;93826.47;4966060;28;20307;-75
2022/05/14 04:46:17;;;;;;;11.85;7.93;;;;;;;16.18;51.18;93809.66;4968787;28;20420;-75
2022/05/14 04:48:42;;;;;;;14.18;9.93;;;;;;;15.90;51.79;93819.72;4971321;28;20038;-74
2022/05/14 04:51:08;;;;;;;18.85;8.48;;;;;;;15.74;52.83;93825.06;4971976;28;20041;-74
2022/05/14 04:53:33;;;;;;;12.68;8.43;;;;;;;16.25;51.54;93815.22;4973478;28;20042;-75
2022/05/14 04:55:58;;;;;;;12.63;8.88;;;;;;;16.75;52.07;93827.09;4974689;28;20375;-74
2022/05/14 04:58:24;;;;;;;10.82;8.15;;;;;;;16.94;50.35;93812.91;4970862;28;20089;-74
2022/05/14 05:00:49;;;;;;;9.90;7.70;;;;;;;17.10;49.96;93817.09;4973653;28;20034;-75
2022/05/14 05:03:18;;;;;;;15.18;8.15;;;;;;;17.04;50.22;93828.47;4971938;28;20046;-74
2022/05/14 05:05:53;;;;;;;13.23;8.43;;;;;;;16.75;51.12;93800.25;4971275;28;20499;-74
2022/05/14 05:08:20;;;;;;;11.90;7.97;;;;;;;16.42;52.25;93818.69;4969900;28;20179;-71
2022/05/14 05:10:45;;;;;;;11.93;8.75;;;;;;;16.43;52.28;93837.09;4991980;28;20103;-74
2022/05/14 05:13:14;;;;;;;10.82;8.93;;;;;;;16.71;52.33;93834.31;4994416;28;20038;-75
2022/05/14 05:15:40;;;;;;;10.45;8.88;;;;;;;16.32;52.71;93771.69;4990446;28;20060;-74
2022/05/14 05:18:07;;;;;;;15.63;9.00;;;;;;;17.08;50.94;93813.19;4997641;28;20034;-75
2022/05/14 05:20:34;;;;;;;13.40;8.27;;;;;;;17.54;50.45;93843.69;4995893;28;20810;-75
2022/05/14 05:22:59;;;;;;;14.93;9.20;;;;;;;17.55;50.28;93837.94;4996180;28;20050;-74
2022/05/14 05:25:25;;;;;;;11.23;8.77;;;;;;;17.54;50.20;93836.41;4996204;28;20040;-74
2022/05/14 05:27:51;;;;;;;9.50;8.15;;;;;;;17.27;50.41;93825.88;4993518;28;20042;-75
2022/05/14 05:30:17;;;;;;;10.05;8.88;;;;;;;17.43;50.41;93829.28;4993175;28;20557;-75
2022/05/14 05:32:43;;;;;;;10.25;8.15;;;;;;;17.85;49.69;93840.78;4993290;28;20029;-74
2022/05/14 05:35:09;;;;;;;12.15;8.48;;;;;;;18.05;49.18;93841.56;4992859;28;20417;-74
2022/05/14 05:37:35;;;;;;;15.63;10.10;;;;;;;17.97;49.53;93832.59;4989249;28;20049;-75
2022/05/14 05:40:00;;;;;;;12.05;8.95;;;;;;;17.78;50.30;93842.59;4991824;28;20038;-74
2022/05/14 05:42:26;;;;;;;12.57;9.02;;;;;;;17.74;50.31;93855.22;4995589;28;22304;-74
2022/05/14 05:44:52;;;;;;;17.88;8.40;;;;;;;17.63;49.42;93806.59;4990976;28;20045;-73
2022/05/14 05:47:17;;;;;;;15.35;9.25;;;;;;;17.49;50.48;93844.75;4994354;28;20184;-74
2022/05/14 05:49:43;;;;;;;13.02;7.75;;;;;;;17.94;49.57;93835.22;4995752;28;20092;-74
2022/05/14 05:52:09;;;;;;;18.23;8.98;;;;;;;18.04;49.44;93840.78;4990780;28;20038;-73
2022/05/14 05:57:18;;;;;;;12.15;7.63;;;;;;;18.43;48.97;93854.09;4989795;28;20052;-72
2022/05/14 05:59:44;;;;;;;12.13;8.07;;;;;;;18.48;49.31;93848.38;4994063;28;20549;-74
2022/05/14 06:02:09;;;;;;;12.93;7.50;;;;;;;18.59;48.66;93840.47;4988282;28;20042;-73
2022/05/14 06:04:35;;;;;;;10.23;6.78;;;;;;;18.92;48.17;93848.66;4992279;28;20050;-73
2022/05/14 06:07:02;;;;;;;12.95;8.05;;;;;;;19.22;47.17;93851.38;4995249;28;20045;-74
2022/05/14 06:09:29;;;;;;;10.70;6.78;;;;;;;19.29;47.79;93843.38;4987687;28;20558;-74
2022/05/14 06:11:55;;;;;;;11.05;6.57;;;;;;;19.53;46.59;93840.22;4976954;28;20034;-73
2022/05/14 06:14:21;;;;;;;8.98;6.65;;;;;;;19.59;47.12;93838.75;4993718;28;20040;-73
2022/05/14 06:16:47;;;;;;;6.95;5.97;;;;;;;19.82;45.40;93846.72;4992450;28;20053;-73
2022/05/14 06:19:12;;;;;;;15.40;6.90;;;;;;;19.86;46.51;93849.44;4989769;28;20068;-74
2022/05/14 06:21:38;;;;;;;8.05;6.57;;;;;;;19.81;45.52;93847.06;4991758;28;20050;-73
2022/05/14 06:24:06;;;;;;;8.63;6.25;;;;;;;19.85;45.24;93845.94;4988769;28;20056;-74
2022/05/14 06:26:32;;;;;;;7.43;5.82;;;;;;;19.89;45.57;93859.50;4990953;28;20494;-74
2022/05/14 06:28:59;;;;;;;12.27;7.10;;;;;;;19.97;45.58;93863.81;4990204;28;20042;-72
2022/05/14 06:31:25;;;;;;;8.90;5.85;;;;;;;20.00;45.42;93866.53;4989026;28;20065;-73
2022/05/14 06:33:50;;;;;;;8.35;6.20;;;;;;;20.08;45.36;93854.69;4992128;28;20057;-74
2022/05/14 06:36:16;;;;;;;6.57;5.90;;;;;;;20.21;45.19;93868.69;4993224;28;20517;-73
2022/05/14 06:38:41;;;;;;;6.18;5.57;;;;;;;20.38;44.93;93861.91;4990662;28;20038;-73
2022/05/14 06:41:12;;;;;;;7.55;6.47;;;;;;;20.47;44.97;93865.84;4970301;28;20564;-74
2022/05/14 06:43:39;;;;;;;8.05;6.70;;;;;;;20.57;44.83;93865.16;4984588;28;20046;-73
2022/05/14 06:46:05;;;;;;;9.82;6.13;;;;;;;20.62;44.85;93864.03;4992786;28;20207;-73
2022/05/14 06:48:31;;;;;;;10.07;6.03;;;;;;;20.84;44.82;93870.34;4988307;28;20129;-74
2022/05/14 06:51:00;;;;;;;7.55;6.22;;;;;;;20.77;44.38;93840.59;4992613;28;20061;-74
2022/05/14 06:53:27;;;;;;;10.00;6.93;;;;;;;21.06;44.90;93861.25;4990370;28;20105;-74
2022/05/14 06:55:55;;;;;;;7.68;6.72;;;;;;;21.19;44.06;93867.88;4992126;28;20034;-73
2022/05/14 06:58:26;;;;;;;10.73;7.13;;;;;;;21.12;43.91;93862.44;4980474;28;20492;-74
2022/05/14 07:00:52;;;;;;;6.90;5.85;;;;;;;21.23;44.54;93867.91;4982879;28;20046;-73
2022/05/14 07:08:46;;;;;;;10.57;7.47;;;;;;;21.32;44.28;93869.09;4990733;28;20142;-73
2022/05/14 07:11:12;;;;;;;8.15;6.50;;;;;;;21.41;43.75;93858.72;4985884;28;20034;-74
2022/05/14 07:13:38;;;;;;;9.80;6.65;;;;;;;21.44;43.67;93879.59;4990827;28;20044;-74
2022/05/14 07:16:04;;;;;;;8.57;6.75;;;;;;;21.24;43.55;93870.22;4985493;28;20089;-73
2022/05/14 07:18:29;;;;;;;9.65;6.45;;;;;;;21.34;42.84;93869.50;4990597;28;20490;-73
2022/05/14 07:20:55;;;;;;;9.02;6.43;;;;;;;21.40;42.84;93881.53;4988822;28;20492;-73
2022/05/14 07:23:21;;;;;;;6.68;6.07;;;;;;;21.47;42.66;93878.06;4990397;28;20578;-73
2022/05/14 07:25:48;;;;;;;7.75;6.10;;;;;;;21.39;43.22;93863.75;4985173;28;20045;-71
2022/05/14 07:28:13;;;;;;;9.02;6.60;;;;;;;21.35;43.08;93868.38;4986908;28;20390;-74
2022/05/14 07:30:38;;;;;;;6.38;5.65;;;;;;;21.36;42.80;93879.97;4975901;28;20485;-73
2022/05/14 07:33:04;;;;;;;8.27;7.45;;;;;;;20.96;43.68;93884.38;4981367;28;20478;-73
2022/05/14 07:35:30;;;;;;;7.70;6.63;;;;;;;20.98;43.58;93882.06;4984681;28;20026;-73
2022/05/14 07:37:58;;;;;;;7.15;6.20;;;;;;;20.89;43.69;93875.44;4982882;28;20046;-73
2022/05/14 07:40:26;;;;;;;12.40;6.65;;;;;;;21.15;44.04;93891.44;4986290;28;20045;-73
2022/05/14 07:43:10;;;;;;;7.75;6.65;;;;;;;21.08;43.35;93874.38;4987000;28;20034;-72
2022/05/14 07:45:41;;;;;;;8.63;6.43;;;;;;;20.86;44.06;93900.50;4988304;28;20180;-73
2022/05/14 07:48:11;;;;;;;9.55;6.53;;;;;;;20.63;44.99;93894.53;4979373;28;20145;-75
2022/05/14 07:50:37;;;;;;;9.23;6.85;;;;;;;20.93;45.14;93901.34;4986506;28;20491;-75
2022/05/14 07:53:03;;;;;;;8.88;6.38;;;;;;;21.10;44.46;93897.19;4987429;28;20044;-75
2022/05/14 07:55:28;;;;;;;9.48;7.10;;;;;;;21.05;44.60;93904.88;4987800;28;20166;-74
2022/05/14 07:57:54;;;;;;;10.43;6.82;;;;;;;20.90;45.16;93896.69;4988525;28;20522;-74
2022/05/14 08:00:20;;;;;;;9.18;7.15;;;;;;;21.09;44.39;93898.34;4983558;28;20053;-74
2022/05/14 08:02:46;;;;;;;10.32;6.07;;;;;;;21.06;44.14;93896.41;4992460;28;20033;-75
2022/05/14 08:05:14;;;;;;;14.35;6.30;;;;;;;21.30;44.10;93901.19;4987757;28;20044;-75
2022/05/14 08:07:39;;;;;;;8.20;6.80;;;;;;;21.32;44.33;93906.97;4988475;28;20049;-75
2022/05/14 08:10:07;;;;;;;11.73;7.13;;;;;;;21.42;44.93;93903.53;4982854;28;20076;-75
2022/05/14 08:12:39;;;;;;;10.45;7.18;;;;;;;21.44;44.72;93900.47;4974356;28;20042;-75
2022/05/14 08:15:07;;;;;;;9.82;7.75;;;;;;;21.42;43.61;93890.03;4973212;28;20029;-75
2022/05/14 08:17:33;;;;;;;10.20;7.75;;;;;;;21.75;43.74;93899.09;4971707;28;20030;-75
2022/05/14 08:19:58;;;;;;;8.90;6.97;;;;;;;21.60;44.33;93897.50;4973494;28;20046;-73
2022/05/14 08:25:08;;;;;;;8.02;6.90;;;;;;;21.85;44.59;93892.94;4973600;28;20045;-75
2022/05/14 08:27:47;;;;;;;8.27;6.55;;;;;;;21.80;44.16;93885.19;4968503;28;20047;-74
2022/05/14 08:30:12;;;;;;;9.20;6.60;;;;;;;22.02;43.25;93884.06;4970239;28;20124;-75
2022/05/14 08:32:38;;;;;;;6.85;6.22;;;;;;;22.00;43.76;93872.84;4965787;28;20499;-75
2022/05/14 08:35:04;;;;;;;8.00;6.28;;;;;;;22.10;43.14;93876.72;4969644;28;20189;-75
2022/05/14 08:37:29;;;;;;;12.00;6.88;;;;;;;22.17;42.84;93884.88;4971228;28;20517;-75
2022/05/14 08:39:55;;;;;;;7.50;6.55;;;;;;;21.90;43.39;93851.97;4967961;28;20043;-74
2022/05/14 08:42:20;;;;;;;9.32;7.47;;;;;;;21.69;43.30;93868.13;4967777;28;20101;-75
2022/05/14 08:44:47;;;;;;;9.27;6.40;;;;;;;22.08;42.98;93879.84;4967544;28;20057;-75
2022/05/14 08:47:31;;;;;;;8.73;6.35;;;;;;;22.06;42.20;93881.38;4966522;28;20512;-75
2022/05/14 08:49:57;;;;;;;9.47;5.87;;;;;;;22.23;43.00;93886.88;4966544;28;20042;-75
2022/05/14 08:52:25;;;;;;;8.25;6.25;;;;;;;22.31;42.81;93879.50;4968665;28;20277;-75
2022/05/14 08:54:57;;;;;;;7.65;6.38;;;;;;;22.46;43.06;93866.75;4965841;28;20070;-75
2022/05/14 08:58:00;;;;;;;10.60;8.07;;;;;;;22.16;43.55;93880.63;4966637;28;20054;-75
2022/05/14 09:00:25;;;;;;;7.90;6.40;;;;;;;22.01;43.01;93884.44;4965442;28;20635;-72
2022/05/14 09:02:53;;;;;;;7.55;6.43;;;;;;;21.84;43.72;93858.91;4970301;28;20521;-74
2022/05/14 09:05:30;;;;;;;9.15;7.35;;;;;;;21.95;43.72;93859.69;4970210;28;20669;-73
2022/05/14 09:07:55;;;;;;;10.80;6.32;;;;;;;22.05;42.52;93856.22;4963991;28;20039;-73
2022/05/14 09:10:30;;;;;;;10.00;6.82;;;;;;;21.97;43.28;93862.78;4967832;28;20050;-72
2022/05/14 09:13:13;;;;;;;9.82;6.90;;;;;;;22.12;42.79;93880.63;4965325;28;20475;-74
2022/05/14 09:15:46;;;;;;;8.23;6.35;;;;;;;22.22;42.27;93906.97;4965801;28;20237;-73
2022/05/14 09:18:20;;;;;;;6.30;5.63;;;;;;;22.14;42.87;93905.41;4970159;28;20399;-73
2022/05/14 09:20:57;;;;;;;6.97;6.10;;;;;;;22.06;42.72;93878.66;4965874;28;20529;-73
2022/05/14 09:23:26;;;;;;;11.10;5.60;;;;;;;22.35;42.70;93906.59;4994514;28;20060;-73
2022/05/14 09:25:52;;;;;;;6.65;6.05;;;;;;;22.47;41.94;93889.97;4988165;28;20402;-74
2022/05/14 09:28:40;;;;;;;7.97;6.00;;;;;;;22.53;41.83;93883.03;4990843;28;20063;-73
2022/05/14 09:31:06;;;;;;;7.18;5.75;;;;;;;22.43;42.23;93864.81;4988360;28;20149;-73
2022/05/14 09:33:41;;;;;;;7.22;5.80;;;;;;;22.46;41.42;93883.00;4990182;28;20524;-73
2022/05/14 09:36:15;;;;;;;7.00;5.60;;;;;;;22.70;42.02;93876.81;4988231;28;20076;-73
2022/05/14 09:38:42;;;;;;;7.75;6.78;;;;;;;22.88;41.83;93880.31;4992096;28;20041;-72
2022/05/14 09:41:21;;;;;;;7.35;5.53;;;;;;;22.91;41.67;93873.34;4991077;28;20577;-72
2022/05/14 09:43:52;;;;;;;7.95;6.10;;;;;;;22.84;41.17;93876.78;4984344;28;20065;-73
2022/05/14 09:46:32;;;;;;;7.10;6.40;;;;;;;22.64;41.11;93867.50;4988875;28;20081;-73
2022/05/14 09:49:05;;;;;;;6.85;5.57;;;;;;;22.60;41.63;93880.28;4991135;28;22167;-73
2022/05/14 09:51:43;;;;;;;12.88;6.93;;;;;;;22.57;42.31;93889.22;4974753;28;20038;-74
2022/05/14 09:54:36;;;;;;;11.65;6.07;;;;;;;22.13;45.53;93890.31;4986470;28;20045;-74
2022/05/14 09:57:22;;;;;;;7.18;6.07;;;;;;;22.19;45.85;93888.75;4987249;28;20838;-72
2022/05/14 09:59:53;;;;;;;7.78;6.07;;;;;;;22.09;45.53;93897.66;4990183;28;20032;-74
2022/05/14 10:02:45;;;;;;;6.50;5.68;;;;;;;21.77;46.22;93856.16;4986888;28;20698;-74
2022/05/14 10:05:29;;;;;;;9.82;6.78;;;;;;;22.23;45.36;93905.06;4992333;28;20049;-73
2022/05/14 10:08:04;;;;;;;12.20;6.20;;;;;;;21.66;46.45;93902.13;4988612;28;20707;-73
2022/05/14 10:10:36;;;;;;;11.85;6.68;;;;;;;21.56;49.52;93910.97;4989717;28;20881;-74
2022/05/14 10:13:12;;;;;;;10.88;7.85;;;;;;;21.02;50.03;93909.88;4979103;28;20423;-72
2022/05/14 10:15:50;;;;;;;8.10;6.70;;;;;;;20.96;49.89;93900.59;4970378;28;20044;-72
2022/05/14 10:18:34;;;;;;;14.10;8.45;;;;;;;21.28;50.23;93910.81;4986792;28;20098;-74
2022/05/14 10:21:05;;;;;;;8.20;7.30;;;;;;;20.84;50.38;93916.28;4968820;28;20089;-74
2022/05/14 10:27:02;;;;;;;11.50;7.38;;;;;;;21.37;51.98;93925.56;4967048;28;20477;-75
2022/05/14 10:30:00;;;;;;;9.30;7.93;;;;;;;21.50;49.98;93915.19;4977907;28;20056;-74
2022/05/14 10:32:30;;;;;;;10.57;8.68;;;;;;;21.53;50.15;93916.34;4984087;28;20187;-73
2022/05/14 10:35:15;;;;;;;9.73;8.13;;;;;;;21.22;51.20;93907.69;4986460;28;20076;-75
2022/05/14 10:37:50;;;;;;;9.40;6.95;;;;;;;21.07;51.20;93876.31;4986755;28;20406;-74
2022/05/14 10:40:31;;;;;;;12.52;8.32;;;;;;;20.84;48.73;93894.66;4987664;28;20041;-74
2022/05/14 10:43:33;;;;;;;10.25;6.57;;;;;;;20.47;48.36;93871.25;4978420;28;20125;-74
2022/05/14 10:46:00;;;;;;;10.93;6.63;;;;;;;20.43;50.59;93875.06;4980554;28;20858;-72
2022/05/14 10:48:48;;;;;;;9.43;7.20;;;;;;;20.85;50.25;93897.00;4974580;28;21085;-74
2022/05/14 10:51:21;;;;;;;7.20;6.30;;;;;;;21.19;49.17;93894.16;4999297;28;20034;-74
2022/05/14 10:53:47;;;;;;;8.50;5.88;;;;;;;20.96;47.45;93886.31;4985170;28;20053;-74
2022/05/14 10:56:21;;;;;;;10.95;6.53;;;;;;;21.15;47.48;93887.94;4990000;28;20040;-74
2022/05/14 10:59:01;;;;;;;11.05;8.18;;;;;;;20.92;49.72;93891.66;4983601;28;20104;-73
2022/05/14 11:01:42;;;;;;;11.63;7.68;;;;;;;20.72;51.94;93886.88;4998523;28;20140;-74
2022/05/14 11:04:13;;;;;;;11.80;8.35;;;;;;;20.43;53.50;93892.06;4986751;28;20513;-74
2022/05/14 11:07:14;;;;;;;14.10;9.45;;;;;;;20.50;55.18;93884.00;4984353;28;20045;-73
2022/05/14 11:09:49;;;;;;;11.05;8.18;;;;;;;20.67;52.44;93873.72;4981944;28;20124;-74
2022/05/14 11:12:31;;;;;;;11.90;7.30;;;;;;;21.05;53.49;93865.09;4989757;28;20035;-74
2022/05/14 11:14:58;;;;;;;12.05;8.30;;;;;;;21.52;52.55;93868.81;4970973;28;20430;-74
2022/05/14 11:17:30;;;;;;;9.40;7.78;;;;;;;21.22;49.13;93859.00;4969241;28;20030;-74
2022/05/14 11:20:02;;;;;;;10.25;8.00;;;;;;;21.92;49.94;93878.63;4985352;28;20124;-75
2022/05/14 11:22:38;;;;;;;10.68;8.35;;;;;;;21.55;49.39;93868.09;4970476;28;20077;-74
2022/05/14 11:25:12;;;;;;;10.05;7.65;;;;;;;21.16;48.72;93874.06;5003781;28;20038;-75
2022/05/14 11:27:39;;;;;;;32.70;10.32;;;;;;;20.93;49.80;93868.88;4987268;28;20565;-74
2022/05/14 11:30:14;;;;;;;13.27;8.38;;;;;;;21.22;49.75;93859.00;4988108;28;20030;-74
2022/05/14 11:32:39;;;;;;;;;;;;;;;21.87;49.19;93864.31;4984223;28;20619;-73
2022/05/14 11:35:05;;;;;;;7.47;5.50;;;;;;;22.07;46.50;93862.03;4988339;28;20040;-74
2022/05/14 11:37:37;;;;;;;7.93;5.80;;;;;;;22.30;44.61;93853.56;4984576;28;20610;-74
2022/05/14 11:40:19;;;;;;;6.85;4.65;;;;;;;22.65;43.55;93852.81;4986614;28;20037;-74
2022/05/14 11:42:48;;;;;;;6.70;5.10;;;;;;;22.79;41.98;93847.38;4985899;28;20421;-75
2022/05/14 11:45:24;;;;;;;6.43;5.20;;;;;;;22.98;43.18;93833.41;4990205;28;20689;-74
2022/05/14 11:48:07;;;;;;;5.07;4.57;;;;;;;23.19;42.04;93842.66;4980111;28;20422;-74
2022/05/14 11:50:50;;;;;;;8.15;4.88;;;;;;;23.42;40.82;93845.69;4982210;28;20109;-73
2022/05/14 11:53:26;;;;;;;7.03;4.60;;;;;;;23.48;40.15;93834.03;4968327;28;20515;-74
2022/05/14 11:56:07;;;;;;;6.18;3.95;;;;;;;23.60;40.13;93848.38;4978755;28;20132;-75
2022/05/14 11:59:01;;;;;;;6.18;5.57;;;;;;;23.57;39.15;93855.34;4974423;28;20133;-74
2022/05/14 12:01:32;;;;;;;9.18;5.18;;;;;;;23.38;39.66;93850.34;4970027;28;20046;-74